CYCX

CFB Gagetown Heliport

Gagetown, New Brunswick, Canada
METAR CYCX 181300Z 00000KT 15SM FEW020 OVC051 M19/M23 A3027 RMK SC2SC6 DA-4553FT SLP257
Observed Flight Rules
Jan-18 @ 13:00 UTC (49 minutes ago) Visual Flight Rules
Visibility Clouds
15 miles
  • Few at 2,000' AGL
  • Overcast at 5,100' AGL
Temperatures Readings
Current -19°C / -2°F
Dewpoint -23°C / -9°F
Humidity 71%
Altimeter 30.27" Hg
Pressure 1025.7 hPa
Elevation 51
METAR CYCX 181300Z 00000KT 15SM FEW020 OVC051 M19/M23 A3027 RMK SC2SC6 DA-4553FT SLP257
Observed Flight Rules
Jan-18 @ 13:00 UTC
(49 minutes ago)
VFR
Clouds
  • Few at 2,000' AGL
  • Overcast at 5,100' AGL
Temperature Dewpoint
-19°C / -2°F -23°C / -9°F
Humidity Altimeter Pressure
71% 30.27" Hg 1025.7 hPa